Time;durP1;ratioP1;P1;durP2;ratioP2;P2;SDS_P1;SDS_P2;PMS_P1;PMS_P2;Temp;Humidity;BMP_temperature;BMP_pressure;BME280_temperature;BME280_humidity;BME280_pressure;Samples;Min_cycle;Max_cycle;Signal;HPM_P1;HPM_P2
2022/04/22 00:01:40;;;;;;;14.50;6.22;;;10.10;99.90;;;;;;5096518;28;20030;-58
2022/04/22 00:04:06;;;;;;;12.88;6.88;;;10.10;99.90;;;;;;5095759;28;20116;-59
2022/04/22 00:06:31;;;;;;;14.88;7.25;;;10.10;99.90;;;;;;5096404;28;20040;-59
2022/04/22 00:08:57;;;;;;;11.68;6.25;;;10.20;99.90;;;;;;5097467;28;20036;-59
2022/04/22 00:11:32;;;;;;;13.48;6.88;;;10.20;99.90;;;;;;5097295;28;20391;-59
2022/04/22 00:14:02;;;;;;;14.43;6.38;;;10.70;99.90;;;;;;5096733;28;20280;-59
2022/04/22 00:16:30;;;;;;;11.77;6.60;;;10.00;99.90;;;;;;5097188;28;20062;-59
2022/04/22 00:18:56;;;;;;;15.05;7.57;;;10.00;99.90;;;;;;5096583;28;20104;-59
2022/04/22 00:21:22;;;;;;;13.02;6.10;;;10.00;99.90;;;;;;5095485;28;20144;-59
2022/04/22 00:23:49;;;;;;;14.75;6.63;;;10.40;99.90;;;;;;5096338;27;20600;-59
2022/04/22 00:26:16;;;;;;;12.65;7.00;;;9.80;99.90;;;;;;5096350;28;20051;-59
2022/04/22 00:28:42;;;;;;;13.90;6.70;;;10.00;99.90;;;;;;5096984;28;20043;-60
2022/04/22 00:31:07;;;;;;;13.80;6.72;;;9.90;99.90;;;;;;5094902;28;20055;-59
2022/04/22 00:33:35;;;;;;;15.63;6.78;;;9.90;99.90;;;;;;5095396;28;20070;-59
2022/04/22 00:36:02;;;;;;;17.25;7.22;;;9.80;99.90;;;;;;5095854;28;20066;-60
2022/04/22 00:38:28;;;;;;;13.40;7.07;;;10.00;99.90;;;;;;5097455;28;20571;-59
2022/04/22 00:40:55;;;;;;;15.27;6.82;;;9.90;99.90;;;;;;5096577;28;20040;-59
2022/04/22 00:43:25;;;;;;;12.98;6.82;;;9.80;99.90;;;;;;5095331;28;20051;-59
2022/04/22 00:45:52;;;;;;;16.15;7.38;;;11.90;99.90;;;;;;5094748;28;21291;-59
2022/04/22 00:48:21;;;;;;;15.23;7.30;;;9.80;99.90;;;;;;5095206;28;20118;-59
2022/04/22 00:50:48;;;;;;;16.10;6.68;;;9.80;99.90;;;;;;5095044;28;20047;-59
2022/04/22 00:53:14;;;;;;;19.42;6.93;;;10.80;99.90;;;;;;5095452;28;20108;-59
2022/04/22 00:55:45;;;;;;;12.55;6.15;;;10.40;99.90;;;;;;5095650;28;20123;-60
2022/04/22 00:58:11;;;;;;;17.25;7.32;;;10.40;99.90;;;;;;5095831;28;20067;-59
2022/04/22 01:00:38;;;;;;;14.93;7.50;;;10.80;99.90;;;;;;5095061;28;20831;-59
2022/04/22 01:03:07;;;;;;;15.68;7.03;;;9.70;99.90;;;;;;5094969;28;20118;-59
2022/04/22 01:09:47;;;;;;;17.08;7.70;;;11.50;99.90;;;;;;5095426;28;20051;-59
2022/04/22 01:11:27;;;;;;;12.15;7.13;;;9.60;99.90;;;;;;5095277;28;20047;-59
2022/04/22 01:13:54;;;;;;;14.20;6.93;;;9.40;99.90;;;;;;5095345;28;20050;-59
2022/04/22 01:16:20;;;;;;;13.05;6.47;;;9.10;99.90;;;;;;5094678;28;20207;-59
2022/04/22 01:18:46;;;;;;;14.85;7.68;;;10.30;99.90;;;;;;5093565;28;20053;-59
2022/04/22 01:21:13;;;;;;;12.57;7.60;;;9.10;99.90;;;;;;5095336;28;20035;-59
2022/04/22 01:23:39;;;;;;;14.93;7.22;;;9.10;99.90;;;;;;5093491;28;20036;-59
2022/04/22 01:26:04;;;;;;;12.20;7.25;;;8.60;99.90;;;;;;5093428;28;20049;-59
2022/04/22 01:28:31;;;;;;;14.68;5.97;;;8.60;99.90;;;;;;5095347;28;20104;-59
2022/04/22 01:31:00;;;;;;;12.18;7.72;;;10.40;99.90;;;;;;5094210;28;20048;-59
2022/04/22 01:33:28;;;;;;;13.50;7.68;;;9.50;99.90;;;;;;5094499;28;20044;-59
2022/04/22 01:35:53;;;;;;;16.52;6.93;;;8.60;99.90;;;;;;5094582;28;20046;-58
2022/04/22 01:38:19;;;;;;;14.43;7.47;;;8.60;99.90;;;;;;5094716;28;20059;-59
2022/04/22 01:40:45;;;;;;;13.13;7.47;;;8.50;99.90;;;;;;5096363;28;20035;-58
2022/04/22 01:43:11;;;;;;;13.48;7.00;;;8.20;99.90;;;;;;5094398;28;20676;-58
2022/04/22 01:45:40;;;;;;;14.98;7.05;;;8.30;99.90;;;;;;5094555;28;20040;-58
2022/04/22 01:48:06;;;;;;;14.57;7.03;;;8.40;99.90;;;;;;5094019;28;20036;-59
2022/04/22 01:50:32;;;;;;;15.13;7.63;;;8.20;99.90;;;;;;5095741;28;20040;-59
2022/04/22 01:52:59;;;;;;;15.73;7.28;;;8.10;99.90;;;;;;5094420;28;20131;-59
2022/04/22 01:55:26;;;;;;;13.68;6.50;;;8.30;99.90;;;;;;5092877;28;20389;-59
2022/04/22 01:57:53;;;;;;;11.75;7.60;;;8.00;99.90;;;;;;5093382;28;20043;-59
2022/04/22 02:00:19;;;;;;;14.93;7.20;;;7.50;99.90;;;;;;5093466;28;20036;-59
2022/04/22 02:02:44;;;;;;;11.57;6.72;;;8.10;99.90;;;;;;5094591;28;20521;-46
2022/04/22 02:05:10;;;;;;;11.65;7.05;;;8.10;99.90;;;;;;5093061;28;20516;-45
2022/04/22 02:07:41;;;;;;;12.70;7.68;;;8.10;99.90;;;;;;5094031;28;20402;-46
2022/04/22 02:10:07;;;;;;;13.80;7.07;;;7.90;99.90;;;;;;5093775;28;20579;-45
2022/04/22 02:12:33;;;;;;;12.98;7.45;;;8.10;99.90;;;;;;5092585;28;20770;-46
2022/04/22 02:14:59;;;;;;;10.75;6.82;;;8.10;99.90;;;;;;5094665;28;20036;-45
2022/04/22 02:17:26;;;;;;;12.18;6.75;;;7.90;99.90;;;;;;5094362;28;20043;-46
2022/04/22 02:19:52;;;;;;;12.02;5.53;;;8.10;99.90;;;;;;5093632;28;20037;-49
2022/04/22 02:22:17;;;;;;;16.65;6.93;;;7.80;99.90;;;;;;5093377;28;20043;-48
2022/04/22 02:24:43;;;;;;;11.90;6.30;;;7.90;99.90;;;;;;5093993;28;20038;-46
2022/04/22 02:29:55;;;;;;;14.05;6.65;;;7.90;99.90;;;;;;5093173;28;20530;-44
2022/04/22 02:32:21;;;;;;;12.52;7.05;;;7.80;99.90;;;;;;5090815;28;20039;-49
2022/04/22 02:34:47;;;;;;;16.40;7.20;;;;;;;;;;5092690;28;20145;-46
2022/04/22 02:37:12;;;;;;;11.70;6.80;;;7.70;99.90;;;;;;5093418;28;20142;-47
2022/04/22 02:39:38;;;;;;;12.82;7.22;;;7.60;99.90;;;;;;5093904;28;20385;-44
2022/04/22 02:47:35;;;;;;;15.45;7.18;;;7.50;99.90;;;;;;5093244;28;20534;-48
2022/04/22 02:50:01;;;;;;;11.98;6.95;;;;;;;;;;5093416;28;20179;-47
2022/04/22 02:52:26;;;;;;;10.65;6.40;;;7.30;99.90;;;;;;5094512;28;20112;-49
2022/04/22 02:54:54;;;;;;;13.88;6.82;;;7.40;99.90;;;;;;5092533;28;20040;-48
2022/04/22 02:57:20;;;;;;;13.70;7.18;;;7.40;99.90;;;;;;5092730;28;20067;-48
2022/04/22 02:59:46;;;;;;;12.45;6.38;;;7.10;99.90;;;;;;5093585;28;20040;-44
2022/04/22 03:02:12;;;;;;;12.57;6.72;;;7.30;99.90;;;;;;5070573;28;20048;-47
2022/04/22 03:04:40;;;;;;;13.55;7.30;;;8.10;99.90;;;;;;5093911;28;20125;-45
2022/04/22 03:07:06;;;;;;;14.05;7.10;;;;;;;;;;5093827;28;20063;-44
2022/04/22 03:09:32;;;;;;;12.50;7.00;;;7.20;99.90;;;;;;5093569;28;20037;-46
2022/04/22 03:12:00;;;;;;;13.77;5.63;;;7.10;99.90;;;;;;5093651;28;20415;-48
2022/04/22 03:14:29;;;;;;;12.27;6.63;;;7.20;99.90;;;;;;5093796;28;20048;-47
2022/04/22 03:16:55;;;;;;;9.23;5.78;;;;;;;;;;5093889;28;20039;-48
2022/04/22 03:19:21;;;;;;;11.98;6.72;;;7.30;99.90;;;;;;5092082;28;20082;-43
2022/04/22 03:21:47;;;;;;;9.60;6.07;;;;;;;;;;5093048;28;20075;-45
2022/04/22 03:24:13;;;;;;;12.73;6.35;;;7.20;99.90;;;;;;5092289;28;20113;-44
2022/04/22 03:26:38;;;;;;;10.93;5.95;;;7.40;99.90;;;;;;5093431;28;20108;-45
2022/04/22 03:29:08;;;;;;;11.75;5.85;;;7.30;99.90;;;;;;5091825;28;20032;-46
2022/04/22 03:31:33;;;;;;;6.70;4.05;;;6.90;99.90;;;;;;5091462;28;20120;-49
2022/04/22 03:33:59;;;;;;;10.07;6.00;;;;;;;;;;5092717;28;20508;-49
2022/04/22 03:36:25;;;;;;;13.35;6.47;;;;;;;;;;5092626;28;20411;-46
2022/04/22 03:38:51;;;;;;;11.80;6.22;;;;;;;;;;5092400;28;20202;-47
2022/04/22 03:41:17;;;;;;;12.77;6.03;;;7.30;99.90;;;;;;5094299;28;20351;-46
2022/04/22 03:43:43;;;;;;;10.55;5.85;;;;;;;;;;5092853;28;20163;-46
2022/04/22 03:46:09;;;;;;;9.85;5.25;;;7.30;99.90;;;;;;5092699;28;20040;-48
2022/04/22 03:48:35;;;;;;;10.57;5.70;;;7.30;99.90;;;;;;5091860;28;20042;-46
2022/04/22 03:51:01;;;;;;;12.32;5.97;;;;;;;;;;5092702;28;20407;-46
2022/04/22 03:53:26;;;;;;;11.00;5.90;;;7.10;99.90;;;;;;5091786;28;20169;-49
2022/04/22 03:55:52;;;;;;;11.43;5.85;;;;;;;;;;5092069;28;20048;-48
2022/04/22 03:58:18;;;;;;;8.75;5.68;;;7.20;99.90;;;;;;5092201;28;20048;-44
2022/04/22 04:00:48;;;;;;;11.75;6.55;;;7.20;99.90;;;;;;5091256;28;20313;-49
2022/04/22 04:03:16;;;;;;;10.80;5.80;;;7.10;99.90;;;;;;5092222;28;20114;-47
2022/04/22 04:05:51;;;;;;;13.88;6.35;;;7.00;99.90;;;;;;5094157;28;20563;-47
2022/04/22 04:08:19;;;;;;;11.15;6.28;;;6.90;99.90;;;;;;5095570;28;20078;-46
2022/04/22 04:16:16;;;;;;;13.15;6.43;;;6.60;99.90;;;;;;5095238;28;20111;-48
2022/04/22 04:18:43;;;;;;;11.15;6.95;;;6.50;99.90;;;;;;5097008;27;20052;-46
2022/04/22 04:23:56;;;;;;;14.30;8.05;;;6.70;99.90;;;;;;5094782;28;20086;-44
2022/04/22 04:26:26;;;;;;;12.77;6.57;;;6.60;99.90;;;;;;5096484;28;20031;-47
2022/04/22 04:28:53;;;;;;;12.45;5.95;;;6.50;99.90;;;;;;5095360;28;20836;-45
2022/04/22 04:31:20;;;;;;;12.57;7.28;;;6.40;99.90;;;;;;5095861;28;20059;-48
2022/04/22 04:33:46;;;;;;;17.48;7.32;;;6.50;99.90;;;;;;5096401;28;20642;-45
2022/04/22 04:36:12;;;;;;;10.88;6.30;;;;;;;;;;5094774;28;20119;-45
2022/04/22 04:38:41;;;;;;;12.35;6.03;;;6.40;99.90;;;;;;5093281;28;20083;-48
2022/04/22 04:41:08;;;;;;;11.60;7.00;;;6.50;99.90;;;;;;5095866;28;20038;-48
2022/04/22 04:43:39;;;;;;;12.57;6.68;;;6.50;99.90;;;;;;5094057;28;20130;-45
2022/04/22 04:46:06;;;;;;;13.27;5.93;;;6.40;99.90;;;;;;5094177;28;20066;-42
2022/04/22 04:48:33;;;;;;;10.07;6.10;;;;;;;;;;5095242;28;20211;-46
2022/04/22 04:51:00;;;;;;;11.27;6.53;;;;;;;;;;5094844;28;20063;-45
2022/04/22 04:53:26;;;;;;;12.30;6.60;;;;;;;;;;5093953;28;20083;-47
2022/04/22 04:55:53;;;;;;;14.75;6.57;;;6.50;99.90;;;;;;5094802;28;20511;-43
2022/04/22 04:58:20;;;;;;;14.80;6.53;;;6.70;99.90;;;;;;5095266;28;20132;-44
2022/04/22 05:00:48;;;;;;;10.63;5.97;;;6.70;99.90;;;;;;5093672;28;20043;-44
2022/04/22 05:03:14;;;;;;;11.45;6.05;;;6.70;99.90;;;;;;5091971;28;20046;-47
2022/04/22 05:05:43;;;;;;;13.50;6.45;;;6.80;99.90;;;;;;5094354;28;20040;-46
2022/04/22 05:08:10;;;;;;;13.50;6.13;;;;;;;;;;5093955;28;20039;-47
2022/04/22 05:10:36;;;;;;;9.38;5.68;;;7.00;99.90;;;;;;5096746;28;20036;-47
2022/04/22 05:13:03;;;;;;;10.57;5.78;;;6.80;99.90;;;;;;5093566;28;20043;-45
2022/04/22 05:15:30;;;;;;;9.15;5.45;;;6.90;99.90;;;;;;5094164;28;20036;-45
2022/04/22 05:17:58;;;;;;;10.82;6.88;;;6.90;99.90;;;;;;5092994;28;20704;-44
2022/04/22 05:20:27;;;;;;;9.88;6.07;;;7.00;99.90;;;;;;5094403;28;20035;-44
2022/04/22 05:22:54;;;;;;;13.05;5.95;;;6.90;99.90;;;;;;5095005;28;20074;-45
2022/04/22 05:25:20;;;;;;;12.27;5.55;;;7.10;99.90;;;;;;5094805;28;20043;-44
2022/04/22 05:27:47;;;;;;;10.35;6.10;;;7.30;99.90;;;;;;5094400;28;20034;-44
2022/04/22 05:33:03;;;;;;;11.75;4.50;;;8.30;99.90;;;;;;5094698;28;20415;-43
2022/04/22 05:35:28;;;;;;;7.63;5.20;;;9.10;99.90;;;;;;5095105;28;20044;-48
2022/04/22 05:38:05;;;;;;;8.18;4.18;;;8.30;99.90;;;;;;5094709;28;20027;-44
2022/04/22 05:40:36;;;;;;;9.70;4.55;;;8.70;99.90;;;;;;5094160;28;20142;-46
2022/04/22 05:43:04;;;;;;;9.15;4.65;;;11.10;99.90;;;;;;5092524;28;20046;-46
2022/04/22 05:45:29;;;;;;;7.38;4.00;;;10.30;99.90;;;;;;5092242;28;20051;-44
2022/04/22 05:47:58;;;;;;;7.55;3.42;;;11.40;99.90;;;;;;5091501;28;20140;-45
2022/04/22 05:50:25;;;;;;;9.27;4.43;;;11.30;99.90;;;;;;5093457;28;20039;-42
2022/04/22 05:52:52;;;;;;;5.78;3.40;;;12.00;99.90;;;;;;5092482;28;20073;-44
2022/04/22 05:55:20;;;;;;;7.72;3.90;;;13.40;99.90;;;;;;5093577;28;20066;-45
2022/04/22 05:57:47;;;;;;;8.43;3.45;;;13.40;99.90;;;;;;5093855;28;20044;-46
2022/04/22 06:00:15;;;;;;;6.63;3.20;;;12.90;99.90;;;;;;5093874;28;20302;-45
2022/04/22 06:02:43;;;;;;;7.03;3.28;;;13.10;99.90;;;;;;5092943;28;20180;-47
2022/04/22 06:05:15;;;;;;;7.40;3.28;;;13.30;99.90;;;;;;5092725;28;20035;-45
2022/04/22 06:07:42;;;;;;;7.88;3.20;;;14.00;99.90;;;;;;5093115;28;20115;-43
2022/04/22 06:12:56;;;;;;;7.50;2.88;;;14.20;99.90;;;;;;5093452;28;20157;-47
2022/04/22 06:15:22;;;;;;;7.07;2.50;;;14.90;99.90;;;;;;5092567;28;20506;-46
2022/04/22 06:17:48;;;;;;;23.10;3.58;;;16.30;99.90;;;;;;5092466;28;20046;-47
2022/04/22 06:20:14;;;;;;;128.90;19.50;;;15.30;99.90;;;;;;5092726;28;20051;-48
2022/04/22 06:22:40;;;;;;;10.90;3.15;;;15.40;99.90;;;;;;5093413;28;20126;-45
2022/04/22 06:25:08;;;;;;;24.63;3.72;;;15.80;99.90;;;;;;5093753;28;20043;-44
2022/04/22 06:27:38;;;;;;;5.13;2.30;;;15.70;99.90;;;;;;5090700;28;20051;-44
2022/04/22 06:30:09;;;;;;;6.53;2.63;;;16.10;99.90;;;;;;5092354;28;20044;-46
2022/04/22 06:32:36;;;;;;;507.42;389.40;;;16.30;99.90;;;;;;5090619;28;20051;-45
2022/04/22 06:35:03;;;;;;;714.15;524.65;;;16.50;99.90;;;;;;5090343;28;20571;-42
2022/04/22 06:37:34;;;;;;;1369.70;936.25;;;16.60;99.90;;;;;;5092827;28;20181;-42
2022/04/22 06:45:46;;;;;;;503.92;458.10;;;17.20;99.90;;;;;;5091117;28;20058;-47
2022/04/22 06:48:14;;;;;;;387.42;348.98;;;16.90;99.90;;;;;;5090937;28;20031;-42
2022/04/22 06:50:44;;;;;;;71.10;64.20;;;17.00;99.90;;;;;;5091339;28;20442;-45
2022/04/22 06:53:11;;;;;;;78.97;72.57;;;17.30;99.90;;;;;;5091703;28;20040;-43
2022/04/22 06:55:39;;;;;;;14.60;5.65;;;17.20;99.90;;;;;;5092027;28;20046;-47
2022/04/22 06:58:09;;;;;;;573.03;518.85;;;17.50;99.90;;;;;;5091383;28;20066;-45
2022/04/22 07:00:35;;;;;;;751.63;668.55;;;16.10;99.90;;;;;;5092784;28;20084;-47
2022/04/22 07:03:01;;;;;;;296.50;264.50;;;18.40;99.90;;;;;;5090536;28;20043;-43
2022/04/22 07:05:27;;;;;;;6.80;2.20;;;18.50;99.90;;;;;;5090919;28;21174;-43
2022/04/22 07:07:53;;;;;;;7.90;2.65;;;19.30;99.90;;;;;;5089822;28;20042;-43
2022/04/22 07:10:19;;;;;;;4.72;1.92;;;19.40;99.90;;;;;;5091067;28;20040;-43
2022/04/22 07:12:45;;;;;;;5.30;2.45;;;19.60;99.90;;;;;;5091627;28;20031;-45
2022/04/22 07:15:13;;;;;;;5.22;2.03;;;19.30;99.90;;;;;;5091230;28;20036;-43
2022/04/22 07:17:40;;;;;;;6.93;2.30;;;19.30;99.90;;;;;;5090418;28;20031;-44
2022/04/22 07:20:10;;;;;;;5.43;2.33;;;19.50;99.90;;;;;;5091636;28;20054;-44
2022/04/22 07:22:40;;;;;;;6.60;1.83;;;20.00;99.90;;;;;;5090917;28;20035;-45
2022/04/22 07:25:08;;;;;;;7.43;2.28;;;20.30;99.20;;;;;;5090885;28;20032;-47
2022/04/22 07:27:36;;;;;;;6.38;2.10;;;20.20;98.30;;;;;;5089984;28;20035;-42
2022/04/22 07:30:08;;;;;;;4.80;1.67;;;20.30;98.80;;;;;;5092159;28;20043;-49
2022/04/22 07:32:37;;;;;;;5.80;2.28;;;20.30;97.90;;;;;;5091480;28;20408;-44
2022/04/22 07:35:12;;;;;;;4.05;1.95;;;19.80;97.70;;;;;;5092543;28;20040;-47
2022/04/22 07:37:46;;;;;;;5.45;2.20;;;19.50;97.80;;;;;;5091913;28;20047;-44
2022/04/22 07:40:13;;;;;;;4.05;1.98;;;18.80;99.10;;;;;;5093544;28;20276;-48
2022/04/22 07:46:46;;;;;;;4.07;1.83;;;17.80;99.80;;;;;;5096314;28;20061;-45
2022/04/22 07:48:18;;;;;;;7.80;1.90;;;17.10;99.90;;;;;;5094778;28;20508;-44
2022/04/22 07:50:47;;;;;;;6.00;2.08;;;16.90;99.90;;;;;;5096054;28;20492;-45
2022/04/22 07:53:14;;;;;;;4.53;2.00;;;16.50;99.90;;;;;;5095252;28;20047;-45
2022/04/22 07:55:39;;;;;;;5.78;2.13;;;16.00;99.90;;;;;;5098090;28;20453;-46
2022/04/22 07:58:10;;;;;;;8.52;2.30;;;16.40;99.90;;;;;;5097559;27;20051;-47
2022/04/22 08:00:38;;;;;;;8.13;2.65;;;15.90;99.90;;;;;;5096853;28;20404;-46
2022/04/22 08:03:04;;;;;;;8.57;2.55;;;17.50;99.90;;;;;;5095699;28;20122;-42
2022/04/22 08:05:31;;;;;;;5.95;2.22;;;15.40;99.90;;;;;;5095782;28;20514;-42
2022/04/22 08:07:57;;;;;;;6.07;2.20;;;15.30;99.90;;;;;;5094893;28;20062;-43
2022/04/22 08:10:24;;;;;;;4.32;2.30;;;14.90;99.90;;;;;;5096996;28;20044;-47
2022/04/22 08:12:50;;;;;;;7.13;2.25;;;14.80;99.90;;;;;;5097713;28;20077;-45
2022/04/22 08:15:18;;;;;;;3.58;1.98;;;15.00;99.90;;;;;;5097178;28;20044;-46
2022/04/22 08:17:46;;;;;;;6.90;2.42;;;14.30;99.90;;;;;;5097114;28;20154;-46
2022/04/22 08:20:12;;;;;;;5.93;2.38;;;15.80;99.90;;;;;;5096921;28;20043;-48
2022/04/22 08:22:39;;;;;;;66.28;60.20;;;14.30;99.90;;;;;;5096351;27;20050;-46
2022/04/22 08:25:05;;;;;;;32.88;17.60;;;14.70;99.90;;;;;;5097055;28;20047;-44
2022/04/22 08:27:31;;;;;;;6.40;3.55;;;15.00;99.90;;;;;;5097021;28;20441;-44
2022/04/22 08:29:58;;;;;;;353.02;324.45;;;15.50;99.90;;;;;;5095568;28;20067;-43
2022/04/22 08:32:25;;;;;;;6.00;2.85;;;15.50;99.90;;;;;;5096530;28;20062;-47
2022/04/22 08:34:52;;;;;;;722.53;632.90;;;17.70;99.90;;;;;;5095882;28;20096;-47
2022/04/22 08:37:19;;;;;;;329.33;271.10;;;16.00;99.90;;;;;;5096676;28;20048;-43
2022/04/22 08:39:44;;;;;;;8.25;2.33;;;15.90;99.90;;;;;;5094927;28;20051;-44
2022/04/22 08:42:16;;;;;;;6.32;2.67;;;15.60;99.90;;;;;;5096368;28;20518;-46
2022/04/22 08:44:42;;;;;;;8.48;4.10;;;15.50;99.90;;;;;;5096048;28;20048;-43
2022/04/22 08:50:09;;;;;;;185.45;165.88;;;15.30;99.90;;;;;;5094288;28;20057;-44
2022/04/22 08:52:36;;;;;;;700.88;638.85;;;15.40;99.90;;;;;;5094827;28;20067;-46
2022/04/22 08:55:06;;;;;;;955.47;708.05;;;15.50;99.90;;;;;;5093801;28;20127;-44
2022/04/22 08:57:32;;;;;;;1999.90;994.47;;;15.70;99.90;;;;;;5095312;28;20035;-44
2022/04/22 09:00:00;;;;;;;1432.30;808.28;;;16.80;99.90;;;;;;5092642;28;20036;-46
2022/04/22 09:02:27;;;;;;;1042.78;853.28;;;15.90;99.90;;;;;;5093389;28;20130;-44
2022/04/22 09:04:52;;;;;;;638.50;588.80;;;15.90;99.90;;;;;;5094932;28;20044;-46
2022/04/22 09:07:24;;;;;;;1819.18;969.40;;;15.90;99.90;;;;;;5095643;28;20125;-46
2022/04/22 09:09:50;;;;;;;439.85;394.88;;;16.70;99.90;;;;;;5095056;28;20082;-45
2022/04/22 09:12:19;;;;;;;702.33;642.47;;;16.00;99.90;;;;;;5096549;28;20308;-47
2022/04/22 09:14:52;;;;;;;707.55;645.42;;;16.10;99.90;;;;;;5095386;28;20040;-43
2022/04/22 09:17:26;;;;;;;1009.60;799.47;;;16.00;99.90;;;;;;5094829;28;20042;-44
2022/04/22 09:19:53;;;;;;;1712.38;945.78;;;17.30;99.90;;;;;;5093326;28;20144;-44
2022/04/22 09:22:22;;;;;;;1999.90;886.83;;;16.10;99.90;;;;;;5096116;28;20547;-44
2022/04/22 09:24:50;;;;;;;1851.68;913.75;;;16.20;99.90;;;;;;5094400;28;20519;-42
2022/04/22 09:27:16;;;;;;;1927.65;882.80;;;17.70;99.90;;;;;;5095467;28;20181;-43
2022/04/22 09:29:49;;;;;;;1164.07;496.02;;;16.70;99.90;;;;;;5095970;28;20035;-47
2022/04/22 09:32:21;;;;;;;1435.82;637.58;;;16.80;99.90;;;;;;5094133;28;20973;-43
2022/04/22 09:34:47;;;;;;;;;;;18.10;99.90;;;;;;5096410;28;20055;-42
2022/04/22 09:43:02;;;;;;;503.35;182.10;;;15.20;99.90;;;;;;5093879;28;20036;-43
2022/04/22 09:45:41;;;;;;;88.15;17.90;;;16.20;99.90;;;;;;5094458;28;25037;-46
2022/04/22 09:48:20;;;;;;;948.60;287.80;;;15.10;99.90;;;;;;5095043;28;20035;-43
2022/04/22 09:50:52;;;;;;;769.08;209.63;;;15.10;99.90;;;;;;5094831;28;20496;-44
2022/04/22 09:53:34;;;;;;;7.68;2.72;;;15.00;99.90;;;;;;5092735;28;20039;-48
2022/04/22 09:56:10;;;;;;;5.32;2.50;;;15.30;99.90;;;;;;5093749;28;20043;-43
2022/04/22 09:58:37;;;;;;;550.10;135.23;;;15.40;99.90;;;;;;5094412;28;20039;-45
2022/04/22 10:01:05;;;;;;;169.43;35.17;;;15.60;99.90;;;;;;5093299;28;20032;-43
2022/04/22 10:03:35;;;;;;;4.63;2.22;;;15.70;99.90;;;;;;5093965;28;20079;-45
2022/04/22 10:06:01;;;;;;;1023.80;194.20;;;15.80;99.90;;;;;;5094348;28;20471;-42
2022/04/22 10:08:30;;;;;;;27.55;9.10;;;15.60;99.90;;;;;;5093468;28;20063;-47
2022/04/22 10:11:00;;;;;;;153.07;31.38;;;16.10;99.90;;;;;;5093899;28;20044;-45
2022/04/22 10:13:41;;;;;;;1600.00;447.33;;;15.70;99.90;;;;;;5094509;28;20080;-45
2022/04/22 10:16:10;;;;;;;5.00;2.33;;;15.80;99.90;;;;;;5094020;28;20036;-44
2022/04/22 10:18:38;;;;;;;78.60;9.50;;;16.30;99.90;;;;;;5092095;28;20047;-44
2022/04/22 10:21:05;;;;;;;44.42;16.08;;;15.90;99.90;;;;;;5092119;28;20717;-48
2022/04/22 10:23:32;;;;;;;32.30;4.28;;;16.10;99.90;;;;;;5093754;28;20047;-46
2022/04/22 10:25:59;;;;;;;1065.10;224.45;;;16.30;99.90;;;;;;5094062;28;20078;-44
2022/04/22 10:28:27;;;;;;;1965.05;485.08;;;16.20;99.90;;;;;;5092968;28;20092;-45
2022/04/22 10:30:54;;;;;;;1644.13;493.25;;;15.80;99.90;;;;;;5089621;28;20048;-45
2022/04/22 10:33:40;;;;;;;322.88;65.78;;;16.20;99.90;;;;;;5092645;28;20209;-48
2022/04/22 10:36:06;;;;;;;45.03;4.05;;;16.00;99.90;;;;;;5091951;28;20047;-47
2022/04/22 10:38:43;;;;;;;1029.28;249.35;;;16.40;99.90;;;;;;5094346;28;20404;-43
2022/04/22 10:41:21;;;;;;;86.10;12.25;;;18.30;99.90;;;;;;5093432;28;20032;-47
2022/04/22 10:49:39;;;;;;;38.95;17.05;;;16.50;99.90;;;;;;5090263;28;20498;-49
2022/04/22 10:52:13;;;;;;;10.30;2.72;;;16.20;99.90;;;;;;5090971;28;20039;-44
2022/04/22 10:54:52;;;;;;;92.85;41.60;;;16.60;99.90;;;;;;5090106;28;20078;-45
2022/04/22 10:57:27;;;;;;;502.23;123.70;;;16.60;99.90;;;;;;5092682;28;20044;-47
2022/04/22 11:00:27;;;;;;;263.70;59.13;;;17.60;99.90;;;;;;5092797;28;20039;-47
2022/04/22 11:03:08;;;;;;;5.45;2.67;;;16.70;99.90;;;;;;5092153;28;20445;-42
2022/04/22 11:05:34;;;;;;;213.82;64.57;;;16.90;99.90;;;;;;5091814;28;20035;-42
2022/04/22 11:08:01;;;;;;;7.47;2.70;;;17.00;99.90;;;;;;5092561;28;20085;-43
2022/04/22 11:10:48;;;;;;;7.43;2.72;;;16.70;99.90;;;;;;5092454;28;20052;-44
2022/04/22 11:13:39;;;;;;;1433.63;384.27;;;16.90;99.90;;;;;;5091751;28;20048;-44
2022/04/22 11:16:22;;;;;;;10.43;3.17;;;17.20;99.90;;;;;;5094561;28;20040;-43
2022/04/22 11:19:19;;;;;;;4.60;2.80;;;17.20;99.90;;;;;;5095131;28;20039;-44
2022/04/22 11:21:47;;;;;;;117.40;42.72;;;17.30;99.90;;;;;;5095859;28;20130;-42
2022/04/22 11:24:19;;;;;;;654.70;169.32;;;18.20;99.90;;;;;;5096004;28;20086;-43
2022/04/22 11:26:45;;;;;;;1086.25;313.95;;;17.20;99.90;;;;;;5096753;28;20118;-46
2022/04/22 11:29:13;;;;;;;439.60;132.88;;;17.20;99.90;;;;;;5093946;28;20119;-44
2022/04/22 11:31:39;;;;;;;366.75;116.38;;;17.40;99.90;;;;;;5094326;28;20055;-45
2022/04/22 11:34:11;;;;;;;5.63;2.90;;;17.00;99.90;;;;;;5096383;28;20152;-48
2022/04/22 11:36:48;;;;;;;6.68;3.08;;;18.80;99.90;;;;;;5095251;28;20101;-45
2022/04/22 11:39:20;;;;;;;715.20;210.25;;;17.10;99.90;;;;;;5096000;28;21258;-45
2022/04/22 11:41:53;;;;;;;;;;;17.10;99.90;;;;;;5096269;28;20043;-48
2022/04/22 11:44:20;;;;;;;95.13;27.13;;;17.00;99.90;;;;;;5096837;28;19927;-45
2022/04/22 11:46:46;;;;;;;1178.80;432.45;;;17.30;99.90;;;;;;5096057;28;20048;-45
2022/04/22 11:49:13;;;;;;;1076.93;404.55;;;19.30;99.90;;;;;;5097285;28;20039;-47
2022/04/22 11:51:41;;;;;;;670.50;228.73;;;17.20;99.90;;;;;;5096307;28;20499;-47
2022/04/22 11:54:07;;;;;;;979.95;301.55;;;17.40;99.90;;;;;;5097206;28;20035;-42
2022/04/22 11:56:35;;;;;;;1532.65;463.20;;;17.10;99.90;;;;;;5096908;28;20042;-43
2022/04/22 11:59:02;;;;;;;13.50;6.85;;;17.80;99.90;;;;;;5097313;28;20043;-43
2022/04/22 12:10:03;;;;;;;466.90;114.30;;;17.40;99.90;;;;;;5095232;28;20040;-43
2022/04/22 12:12:31;;;;;;;29.08;13.95;;;17.10;99.90;;;;;;5097500;27;20423;-48
2022/04/22 12:15:01;;;;;;;1116.50;687.35;;;18.20;99.90;;;;;;5096844;28;20051;-45
2022/04/22 12:17:27;;;;;;;223.43;151.55;;;17.20;99.90;;;;;;5096101;28;20044;-44
2022/04/22 12:19:54;;;;;;;447.48;240.13;;;17.30;99.90;;;;;;5096569;28;20035;-45
2022/04/22 12:22:21;;;;;;;1477.63;656.25;;;19.40;99.90;;;;;;5096087;28;20082;-45
2022/04/22 12:25:06;;;;;;;20.75;16.67;;;17.30;99.90;;;;;;5095883;28;20235;-45
2022/04/22 12:27:33;;;;;;;530.17;258.05;;;17.40;99.90;;;;;;5093157;28;20042;-48
2022/04/22 12:30:10;;;;;;;166.88;61.42;;;17.40;99.90;;;;;;5093663;28;20404;-45
2022/04/22 12:32:37;;;;;;;741.63;431.27;;;17.50;99.90;;;;;;5094351;28;20111;-43
2022/04/22 12:35:11;;;;;;;277.67;124.63;;;17.50;99.90;;;;;;5094685;28;20047;-45
2022/04/22 12:37:42;;;;;;;1103.07;528.08;;;18.90;99.90;;;;;;5093826;28;20048;-48
2022/04/22 12:40:11;;;;;;;31.40;21.05;;;18.30;99.90;;;;;;5094447;28;20036;-47
2022/04/22 12:42:39;;;;;;;1043.88;749.63;;;17.50;99.90;;;;;;5093221;28;20032;-46
2022/04/22 12:54:04;;;;;;;875.22;735.95;;;18.20;99.90;;;;;;5093874;28;20498;-48
2022/04/22 12:56:32;;;;;;;156.65;59.38;;;17.70;99.90;;;;;;5093602;28;20050;-45
2022/04/22 12:58:59;;;;;;;987.40;700.42;;;17.70;99.90;;;;;;5093817;28;20044;-45
2022/04/22 13:01:29;;;;;;;1051.57;764.47;;;17.80;99.90;;;;;;5095319;28;20040;-43
2022/04/22 13:03:56;;;;;;;353.77;155.07;;;17.60;99.90;;;;;;5095224;28;20404;-47
2022/04/22 13:06:39;;;;;;;186.63;113.28;;;18.70;99.90;;;;;;5094004;28;20508;-47
2022/04/22 13:09:06;;;;;;;96.03;45.95;;;17.60;99.90;;;;;;5091901;28;20048;-47
2022/04/22 13:11:33;;;;;;;54.20;28.02;;;17.60;99.90;;;;;;5093676;28;20089;-47
2022/04/22 13:13:59;;;;;;;1296.60;429.23;;;17.50;99.90;;;;;;5096295;28;20050;-44
2022/04/22 13:16:24;;;;;;;332.52;138.82;;;17.90;99.90;;;;;;5092476;28;20070;-47
2022/04/22 13:18:50;;;;;;;1236.80;642.50;;;17.60;99.90;;;;;;5094481;28;20278;-46
2022/04/22 13:21:16;;;;;;;787.80;389.35;;;18.60;99.90;;;;;;5095501;28;21006;-48
2022/04/22 13:23:41;;;;;;;534.80;240.55;;;19.80;99.90;;;;;;5092053;28;20336;-47
2022/04/22 13:26:07;;;;;;;1369.40;726.72;;;17.70;99.90;;;;;;5093348;28;20050;-46
2022/04/22 13:28:32;;;;;;;438.55;137.77;;;18.60;99.90;;;;;;5094216;28;21444;-46
2022/04/22 13:30:58;;;;;;;17.77;8.50;;;17.90;99.90;;;;;;5091592;28;20543;-47
2022/04/22 13:33:25;;;;;;;612.67;171.25;;;20.10;99.90;;;;;;5093034;28;20051;-49
2022/04/22 13:35:52;;;;;;;1596.22;598.35;;;18.90;99.90;;;;;;5093585;28;20150;-42
2022/04/22 13:38:18;;;;;;;457.42;106.43;;;20.20;99.90;;;;;;5094108;28;20062;-48
2022/04/22 13:40:43;;;;;;;1487.30;565.42;;;20.00;99.90;;;;;;5093718;28;20032;-47
2022/04/22 13:43:09;;;;;;;653.33;185.25;;;18.10;99.90;;;;;;5095625;28;20039;-43
2022/04/22 13:54:04;;;;;;;17.17;15.27;;;18.10;99.90;;;;;;5030865;28;20045;-42
2022/04/22 13:56:30;;;;;;;267.92;78.70;;;17.90;99.90;;;;;;5030669;28;20044;-46
2022/04/22 13:58:56;;;;;;;41.00;22.58;;;19.60;99.90;;;;;;5031551;28;20052;-45